This is the latest recevied weather packets stored in our database for station/object OE5WWO. If no packets are shown the sender has not sent any weather packets the latest 10 day(s).
| Time | Temp. | Humidity | Pressure | Rain* | Wind** | Luminosity | Snow |
|---|---|---|---|---|---|---|---|
| 1777980937 | 26.11° C | 32% | 1005.8 hPa | 0 mm | - | - | - |
| 1777980040 | 25.56° C | 35% | 1006 hPa | 0 mm | - | - | - |
| 1777977337 | 25° C | 44% | 1006.7 hPa | 0 mm | - | - | - |
| 1777977054 | 24.44° C | 42% | 1006.8 hPa | 0 mm | - | - | - |
| 1777975258 | 23.89° C | 44% | 1007 hPa | 0 mm | - | - | - |
| 1777974940 | 23.89° C | 47% | 1007 hPa | 0 mm | - | - | - |
| 1777974349 | 23.33° C | 45% | 1007.2 hPa | 0 mm | - | - | - |
| 1777974039 | 23.33° C | 46% | 1007.3 hPa | 0 mm | - | - | - |
| 1777973742 | 23.33° C | 50% | 1007.4 hPa | 0 mm | - | - | - |
| 1777965347 | 19.44° C | 62% | 1008.3 hPa | 0 mm | - | - | - |
| 1777964738 | 18.89° C | 62% | 1008.3 hPa | 0 mm | - | - | - |
| 1777958739 | 15.56° C | 73% | 1008.9 hPa | 0 mm | - | - | - |
| 1777957837 | 14.44° C | 76% | 1008.9 hPa | 0 mm | - | - | - |
| 1777956640 | 13.33° C | 79% | 1009 hPa | 0 mm | - | - | - |
| 1777955743 | 13.33° C | 78% | 1009 hPa | 0 mm | - | - | - |
| 1777955139 | 13.33° C | 78% | 1009.1 hPa | 0 mm | - | - | - |
| 1777954547 | 13.33° C | 78% | 1009 hPa | 0 mm | - | - | - |
| 1777953340 | 13.33° C | 77% | 1009 hPa | 0 mm | - | - | - |
| 1777950949 | 13.89° C | 73% | 1008.9 hPa | 0 mm | - | - | - |
| 1777950645 | 13.89° C | 73% | 1008.9 hPa | 0 mm | - | - | - |
| 1777947355 | 15° C | 69% | 1009 hPa | 0 mm | - | - | - |
| 1777944649 | 15.56° C | 67% | 1009.1 hPa | 0 mm | - | - | - |
| 1777944339 | 16.11° C | 67% | 1009.2 hPa | 0 mm | - | - | - |
| 1777942238 | 16.67° C | 64% | 1009.2 hPa | 0 mm | - | - | - |
| 1777939251 | 18.33° C | 58% | 1009.7 hPa | 0 mm | - | - | - |
* Rain latest hour (hover to see other rain measurements)
** Current wind speed in m/s (hover to see current wind gust speed)